Time;durP1;ratioP1;P1;durP2;ratioP2;P2;SDS_P1;SDS_P2;PMS_P1;PMS_P2;Temp;Humidity;BMP_temperature;BMP_pressure;BME280_temperature;BME280_humidity;BME280_pressure;Samples;Min_cycle;Max_cycle;Signal;HPM_P1;HPM_P2
2024/01/27 00:01:34;;;;;;;6.23;2.07;;;;;;;7.34;47.33;99551.34;4938868;29;20268;-88
2024/01/27 00:04:00;;;;;;;3.57;1.70;;;;;;;7.33;47.10;99548.81;4954773;29;20197;-87
2024/01/27 00:06:25;;;;;;;3.57;1.40;;;;;;;7.37;46.92;99555.63;4955659;29;20181;-87
2024/01/27 00:08:50;;;;;;;3.97;1.17;;;;;;;7.51;46.78;99547.34;4956162;29;20177;-87
2024/01/27 00:11:16;;;;;;;3.00;1.20;;;;;;;7.59;46.70;99546.19;4955606;29;20181;-86
2024/01/27 00:13:41;;;;;;;5.30;1.63;;;;;;;7.33;47.57;99549.66;4938870;29;20221;-88
2024/01/27 00:16:07;;;;;;;1.80;0.90;;;;;;;7.29;47.71;99539.38;4955828;29;20177;-89
2024/01/27 00:18:35;;;;;;;7.33;1.40;;;;;;;7.29;47.26;99534.16;4938794;29;20197;-89
2024/01/27 00:21:01;;;;;;;2.20;1.20;;;;;;;7.26;47.21;99537.72;4954435;28;20222;-88
2024/01/27 00:23:26;;;;;;;3.00;1.50;;;;;;;7.27;47.14;99547.25;4955452;29;20185;-90
2024/01/27 00:25:52;;;;;;;2.53;1.23;;;;;;;7.34;47.09;99546.13;4955341;29;20182;-88
2024/01/27 00:28:17;;;;;;;4.40;1.20;;;;;;;7.34;46.88;99548.75;4955315;29;20189;-87
2024/01/27 00:30:43;;;;;;;3.53;1.20;;;;;;;7.40;47.37;99548.56;4955279;29;20183;-88
2024/01/27 00:33:08;;;;;;;3.07;1.07;;;;;;;7.43;47.09;99555.41;4955571;29;20264;-87
2024/01/27 00:35:33;;;;;;;1.53;0.90;;;;;;;7.45;47.14;99561.44;4955287;29;20258;-87
2024/01/27 00:37:59;;;;;;;2.60;1.23;;;;;;;7.41;46.90;99559.84;4955191;29;20273;-88
2024/01/27 00:40:24;;;;;;;3.87;1.13;;;;;;;7.31;47.44;99561.06;4955119;29;20202;-88
2024/01/27 00:42:50;;;;;;;2.70;1.13;;;;;;;7.34;47.54;99560.91;4955153;29;20631;-87
2024/01/27 00:45:15;;;;;;;3.43;1.00;;;;;;;7.28;47.48;99553.31;4938403;29;20302;-87
2024/01/27 00:47:41;;;;;;;2.03;1.00;;;;;;;7.32;47.62;99558.38;4938193;28;20189;-88
2024/01/27 00:50:08;;;;;;;7.30;1.20;;;;;;;7.28;47.02;99555.94;4954141;28;20187;-87
2024/01/27 00:52:34;;;;;;;3.83;1.20;;;;;;;7.11;47.74;99553.84;4955543;29;20212;-87
2024/01/27 00:55:00;;;;;;;1.97;0.90;;;;;;;7.14;47.82;99555.50;4955333;29;20185;-88
2024/01/27 00:57:25;;;;;;;7.20;1.37;;;;;;;7.14;47.84;99547.69;4954065;29;20191;-87
2024/01/27 00:59:50;;;;;;;6.30;1.13;;;;;;;7.33;47.71;99543.59;4955645;28;20205;-88
2024/01/27 01:02:16;;;;;;;4.73;1.53;;;;;;;7.54;46.78;99544.63;4959215;29;20181;-88
2024/01/27 01:04:42;;;;;;;4.90;1.70;;;;;;;7.57;46.64;99537.56;4959013;29;20182;-88
2024/01/27 01:07:08;;;;;;;1.90;1.07;;;;;;;7.32;46.70;99539.28;4958888;29;20191;-87
2024/01/27 01:09:33;;;;;;;2.00;0.80;;;;;;;7.23;47.42;99543.03;4958845;29;20552;-88
2024/01/27 01:11:59;;;;;;;7.03;1.40;;;;;;;7.37;47.29;99542.56;4959042;29;20269;-87
2024/01/27 01:14:24;;;;;;;7.83;1.10;;;;;;;7.42;46.49;99527.63;4959005;29;20178;-88
2024/01/27 01:16:50;;;;;;;3.43;0.93;;;;;;;7.48;46.67;99517.00;4958708;29;20208;-87
2024/01/27 01:19:15;;;;;;;3.47;1.83;;;;;;;7.53;46.77;99525.50;4958887;29;20201;-87
2024/01/27 01:21:41;;;;;;;1.60;0.80;;;;;;;7.36;47.10;99515.63;4958892;29;20174;-87
2024/01/27 01:24:07;;;;;;;3.17;1.30;;;;;;;7.29;47.24;99521.13;4941978;29;20216;-87
2024/01/27 01:26:33;;;;;;;2.97;1.30;;;;;;;7.31;47.12;99519.34;4941920;29;20251;-88
2024/01/27 01:28:58;;;;;;;6.33;0.90;;;;;;;7.29;47.20;99516.75;4941852;28;20177;-87
2024/01/27 01:31:24;;;;;;;3.63;1.20;;;;;;;7.24;47.47;99503.03;4957794;28;20213;-86
2024/01/27 01:33:49;;;;;;;2.67;0.90;;;;;;;7.43;46.54;99506.72;4942355;29;20181;-88
2024/01/27 01:36:14;;;;;;;2.30;1.10;;;;;;;7.44;47.06;99492.75;4941733;29;20181;-88
2024/01/27 01:38:40;;;;;;;2.13;1.10;;;;;;;7.36;47.11;99491.34;4957671;29;20185;-88
2024/01/27 01:41:06;;;;;;;4.33;1.37;;;;;;;7.38;47.05;99490.38;4941253;29;20205;-87
2024/01/27 01:43:31;;;;;;;3.40;1.60;;;;;;;7.40;46.80;99482.50;4957604;29;20539;-88
2024/01/27 01:45:57;;;;;;;5.37;1.60;;;;;;;7.58;46.73;99483.63;4958532;29;20275;-87
2024/01/27 01:48:22;;;;;;;4.03;1.47;;;;;;;7.61;46.34;99486.97;4942024;29;20329;-87
2024/01/27 01:50:49;;;;;;;3.03;1.43;;;;;;;7.46;46.95;99490.13;4957440;29;20173;-88
2024/01/27 01:53:15;;;;;;;4.73;1.27;;;;;;;7.32;47.25;99479.28;4941978;29;20200;-88
2024/01/27 01:55:40;;;;;;;2.50;1.50;;;;;;;7.37;47.24;99477.38;4957388;29;20189;-88
2024/01/27 01:58:06;;;;;;;2.10;0.90;;;;;;;7.47;46.80;99478.75;4958000;29;20190;-88
2024/01/27 02:00:32;;;;;;;2.30;1.03;;;;;;;7.62;46.49;99480.88;4957880;29;20201;-87
2024/01/27 02:02:58;;;;;;;1.93;1.00;;;;;;;7.38;47.05;99479.09;4957941;29;20185;-88
2024/01/27 02:05:23;;;;;;;3.53;1.10;;;;;;;7.34;46.88;99477.47;4940944;29;20217;-88
2024/01/27 02:07:49;;;;;;;6.47;1.80;;;;;;;7.47;46.60;99481.38;4957832;29;20687;-88
2024/01/27 02:10:16;;;;;;;1.90;1.37;;;;;;;7.57;46.66;99477.56;4941136;29;20249;-88
2024/01/27 02:12:42;;;;;;;6.30;1.30;;;;;;;7.54;46.82;99477.66;4952373;28;20264;-88
2024/01/27 02:15:11;;;;;;;5.33;1.23;;;;;;;7.51;46.86;99477.78;4938842;29;20253;-87
2024/01/27 02:17:37;;;;;;;2.10;1.03;;;;;;;7.41;46.74;99472.03;4922023;29;20252;-88
2024/01/27 02:20:03;;;;;;;3.77;0.80;;;;;;;7.49;46.26;99478.72;4938944;29;20206;-87
2024/01/27 02:22:28;;;;;;;1.93;0.87;;;;;;;7.42;46.78;99475.47;4922447;29;20186;-88
2024/01/27 02:24:53;;;;;;;3.33;0.90;;;;;;;7.39;46.41;99472.97;4938391;29;20617;-89
2024/01/27 02:27:19;;;;;;;3.63;1.27;;;;;;;7.29;47.00;99474.19;4922117;29;20588;-88
2024/01/27 02:29:44;;;;;;;3.03;1.07;;;;;;;7.36;46.86;99466.09;4922114;29;20596;-87
2024/01/27 02:32:10;;;;;;;2.13;1.30;;;;;;;7.40;46.39;99461.63;4921790;29;20268;-87
2024/01/27 02:34:35;;;;;;;6.13;1.07;;;;;;;7.31;46.35;99468.00;4921688;29;20178;-88
2024/01/27 02:37:00;;;;;;;9.30;1.37;;;;;;;7.35;46.42;99459.19;4938128;29;20183;-87
2024/01/27 02:39:26;;;;;;;2.30;0.90;;;;;;;7.47;46.30;99463.13;4921539;29;20217;-86
2024/01/27 02:41:51;;;;;;;2.23;1.20;;;;;;;7.60;45.85;99472.22;4921264;29;20185;-88
2024/01/27 02:44:17;;;;;;;2.10;1.13;;;;;;;7.64;45.87;99467.75;4937969;29;20252;-88
2024/01/27 02:46:44;;;;;;;3.73;1.50;;;;;;;7.79;45.14;99461.97;4921677;29;20201;-88
2024/01/27 02:49:09;;;;;;;4.20;1.43;;;;;;;7.89;44.95;99476.41;4938740;29;20635;-88
2024/01/27 02:51:35;;;;;;;4.10;1.73;;;;;;;7.88;44.79;99475.56;4938168;29;20182;-87
2024/01/27 02:54:00;;;;;;;2.60;1.30;;;;;;;7.70;44.78;99468.41;4921063;29;20185;-88
2024/01/27 02:56:25;;;;;;;3.17;1.03;;;;;;;7.85;44.88;99472.22;4922081;29;20189;-87
2024/01/27 02:58:51;;;;;;;2.30;1.10;;;;;;;7.98;44.68;99482.16;4921277;29;20273;-88
2024/01/27 03:01:16;;;;;;;1.90;0.93;;;;;;;8.04;44.19;99489.72;4920838;29;20220;-88
2024/01/27 03:03:42;;;;;;;4.27;1.27;;;;;;;8.02;44.33;99482.88;4937627;29;20217;-88
2024/01/27 03:06:07;;;;;;;3.03;1.73;;;;;;;8.05;44.18;99482.75;4921140;29;20249;-88
2024/01/27 03:08:33;;;;;;;4.33;1.30;;;;;;;8.04;44.31;99481.91;4921379;29;20182;-88
2024/01/27 03:10:58;;;;;;;4.63;1.17;;;;;;;8.07;44.13;99475.72;4921052;29;20179;-88
2024/01/27 03:13:24;;;;;;;6.00;1.63;;;;;;;8.16;44.07;99469.31;4920756;29;20194;-87
2024/01/27 03:15:49;;;;;;;4.40;1.70;;;;;;;8.14;44.04;99458.09;4920668;29;20190;-88
2024/01/27 03:18:15;;;;;;;3.80;1.30;;;;;;;8.07;44.27;99466.13;4937644;29;20186;-88
2024/01/27 03:20:40;;;;;;;2.87;1.50;;;;;;;8.10;44.35;99464.34;4920803;29;20214;-88
2024/01/27 03:23:06;;;;;;;3.73;1.30;;;;;;;7.91;44.49;99470.22;4920768;29;20186;-88
2024/01/27 03:25:31;;;;;;;4.37;1.10;;;;;;;7.94;44.21;99461.41;4937801;29;20274;-88
2024/01/27 03:27:57;;;;;;;4.30;1.13;;;;;;;7.95;44.51;99456.16;4920722;29;20193;-88
2024/01/27 03:30:22;;;;;;;3.87;1.57;;;;;;;8.03;44.50;99453.25;4920678;29;20189;-88
2024/01/27 03:32:48;;;;;;;2.20;1.20;;;;;;;8.07;44.45;99446.19;4920623;29;20192;-88
2024/01/27 03:35:13;;;;;;;16.50;1.80;;;;;;;7.99;44.31;99436.03;4921389;29;20188;-88
2024/01/27 03:37:39;;;;;;;8.43;2.00;;;;;;;7.87;44.82;99429.50;4952024;28;20182;-88
2024/01/27 03:40:06;;;;;;;6.70;2.30;;;;;;;7.47;45.16;99439.66;4920091;29;20661;-88
2024/01/27 03:42:31;;;;;;;4.30;2.37;;;;;;;7.39;45.65;99450.34;4937216;29;20186;-88
2024/01/27 03:44:56;;;;;;;6.60;2.33;;;;;;;7.40;45.93;99451.22;4920513;29;20521;-88
2024/01/27 03:47:22;;;;;;;4.37;1.93;;;;;;;7.42;45.43;99445.03;4920075;29;20264;-88
2024/01/27 03:49:47;;;;;;;5.23;2.07;;;;;;;7.48;45.18;99433.53;4920055;29;20613;-88
2024/01/27 03:52:13;;;;;;;5.50;1.33;;;;;;;7.60;45.35;99433.09;4937304;29;20196;-88
2024/01/27 03:54:38;;;;;;;5.93;1.43;;;;;;;7.69;45.03;99435.38;4936745;29;20193;-88
2024/01/27 03:57:04;;;;;;;3.27;1.30;;;;;;;7.68;44.99;99438.88;4937007;29;20177;-87
2024/01/27 03:59:29;;;;;;;3.80;1.33;;;;;;;7.59;45.22;99434.00;4920162;29;20213;-88
2024/01/27 04:01:55;;;;;;;6.33;1.90;;;;;;;7.62;45.36;99436.53;4920242;29;20678;-88
2024/01/27 04:04:21;;;;;;;2.57;1.27;;;;;;;7.61;45.00;99429.59;4951877;28;20189;-87
2024/01/27 04:06:46;;;;;;;3.93;1.10;;;;;;;7.51;45.81;99430.81;4920098;29;20198;-88
2024/01/27 04:09:12;;;;;;;3.07;1.30;;;;;;;7.48;45.58;99438.75;4936780;29;20185;-88
2024/01/27 04:11:38;;;;;;;4.27;1.10;;;;;;;7.46;45.42;99437.97;4919680;29;20185;-88
2024/01/27 04:14:05;;;;;;;3.03;1.23;;;;;;;7.36;46.02;99441.81;4919885;29;20586;-88
2024/01/27 04:16:30;;;;;;;6.17;0.87;;;;;;;7.24;46.06;99440.44;4936400;29;20174;-88
2024/01/27 04:18:56;;;;;;;4.13;1.47;;;;;;;7.08;46.60;99441.88;4951372;28;20185;-87
2024/01/27 04:21:22;;;;;;;4.60;1.43;;;;;;;7.13;45.95;99444.31;4936748;29;20285;-88
2024/01/27 04:23:47;;;;;;;2.40;1.20;;;;;;;7.06;46.26;99435.00;4936525;29;20181;-89
2024/01/27 04:26:13;;;;;;;7.47;1.70;;;;;;;6.96;46.36;99444.03;4936219;29;20177;-88
2024/01/27 04:28:38;;;;;;;5.33;1.73;;;;;;;6.89;46.23;99447.75;4919726;29;20181;-88
2024/01/27 04:31:04;;;;;;;3.13;1.60;;;;;;;6.86;46.52;99433.09;4936479;29;20660;-88
2024/01/27 04:33:30;;;;;;;3.97;1.50;;;;;;;6.82;46.93;99419.28;4919628;29;20682;-88
2024/01/27 04:35:55;;;;;;;3.10;1.80;;;;;;;6.87;47.18;99420.88;4919020;29;20194;-88
2024/01/27 04:38:21;;;;;;;3.77;1.43;;;;;;;6.83;46.85;99425.34;4919624;29;20185;-88
2024/01/27 04:40:46;;;;;;;1.80;1.13;;;;;;;6.84;47.13;99418.41;4919500;29;20300;-88
2024/01/27 04:43:16;;;;;;;6.27;1.33;;;;;;;6.87;46.99;99420.88;4936328;29;20241;-88
2024/01/27 04:45:41;;;;;;;3.17;1.43;;;;;;;6.74;47.45;99415.22;4936434;29;20193;-88
2024/01/27 04:48:07;;;;;;;2.33;1.40;;;;;;;6.74;47.28;99416.09;4919792;29;20604;-88
2024/01/27 04:50:32;;;;;;;2.83;1.30;;;;;;;6.68;47.32;99421.47;4919461;29;20185;-88
2024/01/27 04:52:58;;;;;;;2.93;1.20;;;;;;;6.75;46.74;99415.19;4950896;28;20189;-88
2024/01/27 04:55:23;;;;;;;2.07;1.00;;;;;;;6.76;47.20;99416.88;4919376;29;20268;-88
2024/01/27 04:57:49;;;;;;;4.13;1.23;;;;;;;6.70;47.48;99405.81;4919093;29;20272;-88
2024/01/27 05:00:15;;;;;;;16.27;1.83;;;;;;;6.64;47.17;99417.28;4936113;29;20284;-87
2024/01/27 05:02:41;;;;;;;2.83;1.40;;;;;;;6.66;47.09;99415.47;4951180;28;20228;-88
2024/01/27 05:05:07;;;;;;;5.77;1.57;;;;;;;6.61;47.53;99409.56;4936107;29;20186;-88
2024/01/27 05:07:33;;;;;;;3.50;1.40;;;;;;;6.60;47.72;99415.66;4919321;29;20177;-88
2024/01/27 05:09:59;;;;;;;6.30;2.40;;;;;;;6.61;47.50;99412.19;4919034;29;20178;-88
2024/01/27 05:12:24;;;;;;;7.03;2.47;;;;;;;6.59;47.18;99416.59;4919511;29;20190;-87
2024/01/27 05:14:50;;;;;;;9.97;3.00;;;;;;;6.68;47.40;99415.44;4919010;29;20272;-88
2024/01/27 05:17:15;;;;;;;14.60;3.50;;;;;;;6.70;47.14;99419.69;4919781;29;20578;-87
2024/01/27 05:19:41;;;;;;;7.93;2.50;;;;;;;6.68;46.86;99407.63;4919368;29;20248;-87
2024/01/27 05:22:06;;;;;;;8.27;2.97;;;;;;;6.52;46.57;99411.63;4918953;29;20276;-88
2024/01/27 05:24:33;;;;;;;7.00;2.80;;;;;;;6.46;47.18;99407.47;4919206;29;20185;-87
2024/01/27 05:26:59;;;;;;;7.87;1.70;;;;;;;6.32;47.56;99409.63;4935591;29;20177;-87
2024/01/27 05:29:27;;;;;;;8.77;2.40;;;;;;;6.25;47.37;99415.94;4918820;29;20196;-87
2024/01/27 05:31:52;;;;;;;5.47;1.47;;;;;;;6.13;47.72;99406.75;4935627;29;20237;-87
2024/01/27 05:34:18;;;;;;;4.23;1.80;;;;;;;6.10;47.11;99406.00;4950593;28;20268;-88
2024/01/27 05:36:43;;;;;;;6.37;2.23;;;;;;;6.08;47.15;99408.63;4918826;29;20182;-87
2024/01/27 05:39:09;;;;;;;3.53;1.90;;;;;;;6.05;48.04;99407.91;4918756;29;20182;-87
2024/01/27 05:41:34;;;;;;;3.07;1.20;;;;;;;6.15;48.18;99411.91;4918976;29;20659;-88
2024/01/27 05:44:00;;;;;;;4.57;1.73;;;;;;;6.10;48.39;99401.66;4918700;29;20272;-88
2024/01/27 05:46:26;;;;;;;6.83;2.13;;;;;;;6.18;48.21;99402.25;4936915;29;20193;-87
2024/01/27 05:48:53;;;;;;;5.80;1.83;;;;;;;6.27;48.49;99406.31;4922568;29;20185;-88
2024/01/27 05:51:19;;;;;;;4.57;2.20;;;;;;;6.41;48.72;99398.09;4922941;29;20188;-88
2024/01/27 05:53:45;;;;;;;4.40;2.10;;;;;;;6.40;48.43;99388.56;4922431;29;20280;-88
2024/01/27 05:56:11;;;;;;;4.97;2.17;;;;;;;6.50;48.30;99382.19;4922411;29;20273;-87
2024/01/27 05:58:37;;;;;;;4.13;1.90;;;;;;;6.50;48.09;99388.22;4922611;29;20254;-87
2024/01/27 06:01:02;;;;;;;6.63;2.13;;;;;;;6.59;47.75;99393.16;4938995;29;20629;-88
2024/01/27 06:03:28;;;;;;;3.27;1.67;;;;;;;6.61;48.02;99393.94;4939035;29;20181;-88
2024/01/27 06:05:53;;;;;;;6.00;1.90;;;;;;;6.69;47.21;99388.47;4922302;29;20652;-88
2024/01/27 06:08:19;;;;;;;2.47;1.27;;;;;;;6.74;47.71;99387.44;4921905;29;20184;-87
2024/01/27 06:10:45;;;;;;;7.70;2.10;;;;;;;6.84;47.45;99381.94;4939463;29;20174;-87
2024/01/27 06:13:11;;;;;;;4.73;1.80;;;;;;;6.84;47.42;99384.53;4922558;29;20602;-88
2024/01/27 06:15:36;;;;;;;3.40;1.33;;;;;;;6.94;47.06;99389.38;4938565;29;20218;-87
2024/01/27 06:18:02;;;;;;;4.03;1.50;;;;;;;7.00;46.77;99394.38;4921979;29;20612;-87
2024/01/27 06:20:27;;;;;;;3.43;1.27;;;;;;;7.01;45.71;99398.69;4921620;29;20201;-87
2024/01/27 06:22:53;;;;;;;6.50;2.50;;;;;;;7.00;46.26;99407.41;4921685;29;20582;-87
2024/01/27 06:25:20;;;;;;;5.90;2.80;;;;;;;6.97;46.97;99415.31;4921629;29;20186;-88
2024/01/27 06:27:45;;;;;;;6.80;2.90;;;;;;;7.04;46.98;99413.38;4921903;29;20190;-87
2024/01/27 06:30:11;;;;;;;10.17;3.40;;;;;;;7.08;46.23;99414.94;4921842;29;20538;-88
2024/01/27 06:32:37;;;;;;;6.97;1.93;;;;;;;7.11;46.04;99412.25;4921727;29;20252;-88
2024/01/27 06:35:04;;;;;;;4.53;2.00;;;;;;;7.19;46.16;99410.22;4921764;29;20189;-88
2024/01/27 06:37:29;;;;;;;11.37;2.60;;;;;;;7.25;46.35;99410.03;4921714;29;20190;-88
2024/01/27 06:39:55;;;;;;;7.03;2.27;;;;;;;7.31;45.49;99421.06;4921534;29;20213;-88
2024/01/27 06:42:20;;;;;;;5.47;2.37;;;;;;;7.41;45.42;99419.03;4922334;29;20182;-88
2024/01/27 06:44:46;;;;;;;3.97;2.07;;;;;;;7.47;45.29;99424.00;4921261;29;20210;-88
2024/01/27 06:47:11;;;;;;;5.43;2.90;;;;;;;7.52;44.78;99414.25;4921573;29;20174;-88
2024/01/27 06:49:37;;;;;;;12.13;2.60;;;;;;;7.60;44.93;99422.66;4938235;29;20249;-88
2024/01/27 06:52:03;;;;;;;4.87;2.60;;;;;;;7.66;45.02;99422.44;4921110;29;20190;-88
2024/01/27 06:54:28;;;;;;;3.27;1.90;;;;;;;7.68;44.40;99430.22;4921645;29;20639;-88
2024/01/27 06:56:53;;;;;;;5.50;2.17;;;;;;;7.67;44.46;99433.72;4921349;29;20182;-88
2024/01/27 06:59:19;;;;;;;7.40;3.10;;;;;;;7.73;44.67;99433.53;4921236;29;20189;-88
2024/01/27 07:01:48;;;;;;;7.60;3.60;;;;;;;7.77;45.23;99435.97;4921792;29;20220;-88
2024/01/27 07:04:14;;;;;;;11.60;4.50;;;;;;;7.88;45.01;99438.16;4921212;29;20269;-88
2024/01/27 07:06:39;;;;;;;8.97;4.73;;;;;;;7.94;45.15;99449.22;4937915;29;20636;-87
2024/01/27 07:09:06;;;;;;;9.50;4.47;;;;;;;7.98;45.74;99455.19;4937849;29;20403;-88
2024/01/27 07:11:32;;;;;;;9.40;4.57;;;;;;;8.02;45.43;99451.53;4937514;29;20173;-88
2024/01/27 07:13:58;;;;;;;7.83;2.97;;;;;;;7.99;45.44;99455.13;4937473;29;20192;-89
2024/01/27 07:16:24;;;;;;;6.97;3.23;;;;;;;8.04;46.28;99455.78;4920646;29;20179;-89
2024/01/27 07:18:51;;;;;;;7.23;2.80;;;;;;;8.07;47.03;99443.56;4937536;29;20178;-90
2024/01/27 07:21:17;;;;;;;10.10;3.37;;;;;;;8.07;46.93;99440.03;4937750;29;20201;-90
2024/01/27 07:23:43;;;;;;;6.80;3.07;;;;;;;8.09;48.06;99439.13;4937471;29;20261;-90
2024/01/27 07:26:12;;;;;;;7.27;3.67;;;;;;;8.06;50.17;99442.72;4937722;29;20244;-90
2024/01/27 07:28:38;;;;;;;9.53;3.23;;;;;;;7.99;50.64;99442.06;4937632;29;20204;-90
2024/01/27 07:31:05;;;;;;;9.57;3.97;;;;;;;7.92;51.15;99443.22;4937281;29;20594;-90
2024/01/27 07:33:30;;;;;;;16.77;7.53;;;;;;;7.88;52.73;99444.25;4952618;28;20270;-91
2024/01/27 07:35:56;;;;;;;10.20;5.70;;;;;;;7.91;51.78;99457.16;4920712;29;20603;-90
2024/01/27 07:38:22;;;;;;;22.10;8.17;;;;;;;7.96;53.62;99452.66;4937170;29;20179;-90
2024/01/27 07:40:47;;;;;;;28.67;10.90;;;;;;;7.86;54.00;99451.25;4937167;29;20207;-90
2024/01/27 07:43:13;;;;;;;25.07;9.83;;;;;;;7.94;53.45;99446.63;4937117;29;20617;-90
2024/01/27 07:45:41;;;;;;;16.90;6.10;;;;;;;7.94;53.78;99449.22;4920139;29;20210;-91
2024/01/27 07:48:07;;;;;;;9.00;3.97;;;;;;;7.83;54.87;99448.78;4920221;29;20190;-90
2024/01/27 07:50:33;;;;;;;9.63;4.40;;;;;;;7.92;54.59;99456.25;4920133;29;20606;-89
2024/01/27 07:52:58;;;;;;;8.57;3.20;;;;;;;8.01;55.56;99450.72;4937187;29;20261;-90
2024/01/27 07:55:24;;;;;;;10.90;3.53;;;;;;;8.16;55.99;99444.06;4936931;29;20248;-91
2024/01/27 07:57:49;;;;;;;7.07;2.57;;;;;;;8.14;57.63;99440.66;4936945;29;20194;-91
2024/01/27 08:00:15;;;;;;;7.00;2.17;;;;;;;8.19;59.20;99430.03;4936868;29;20665;-91
2024/01/27 08:02:41;;;;;;;3.80;1.40;;;;;;;8.26;60.11;99436.72;4920161;29;20189;-90
2024/01/27 08:05:08;;;;;;;5.90;1.70;;;;;;;8.28;61.08;99433.16;4920081;29;20191;-91
2024/01/27 08:07:34;;;;;;;22.17;3.17;;;;;;;8.45;61.17;99419.47;4919905;29;20185;-90
2024/01/27 08:09:59;;;;;;;25.87;4.23;;;;;;;8.55;61.77;99428.63;4935780;29;20678;-90
2024/01/27 08:12:25;;;;;;;5.43;1.80;;;;;;;8.55;60.82;99418.19;4937155;29;20180;-91
2024/01/27 08:14:50;;;;;;;5.97;1.87;;;;;;;8.64;60.33;99418.69;4936449;29;20214;-90
2024/01/27 08:17:15;;;;;;;6.37;1.80;;;;;;;8.78;59.94;99423.31;4936512;29;20174;-90
2024/01/27 08:19:41;;;;;;;4.20;1.93;;;;;;;8.85;59.98;99414.34;4936770;29;20213;-91
2024/01/27 08:22:09;;;;;;;3.03;1.50;;;;;;;8.96;59.95;99408.69;4919833;29;20256;-90
2024/01/27 08:24:34;;;;;;;8.00;2.20;;;;;;;8.92;60.52;99407.94;4920406;29;20620;-90
2024/01/27 08:27:01;;;;;;;5.50;3.00;;;;;;;8.78;61.11;99399.81;4936495;29;20240;-91
2024/01/27 08:29:26;;;;;;;5.03;2.30;;;;;;;8.51;61.37;99406.16;4919626;29;20188;-91
2024/01/27 08:31:52;;;;;;;4.27;2.50;;;;;;;8.29;62.02;99408.75;4936422;29;20193;-90
2024/01/27 08:34:17;;;;;;;6.23;2.43;;;;;;;8.11;63.02;99391.16;4919745;29;20261;-91
2024/01/27 08:36:43;;;;;;;5.63;2.33;;;;;;;8.00;63.09;99390.72;4936813;29;20219;-95
2024/01/27 08:39:08;;;;;;;6.70;1.70;;;;;;;7.91;63.43;99380.66;4919584;29;20264;-91
2024/01/27 08:41:34;;;;;;;9.40;2.47;;;;;;;8.04;63.65;99366.22;4920065;29;20623;-90
2024/01/27 08:43:59;;;;;;;6.13;2.23;;;;;;;8.04;64.20;99354.00;4919487;29;20181;-91
2024/01/27 08:46:25;;;;;;;7.87;2.50;;;;;;;8.10;64.35;99355.53;4919383;29;20201;-91
2024/01/27 08:48:50;;;;;;;5.70;2.20;;;;;;;8.05;64.55;99353.09;4936159;29;20674;-91
2024/01/27 08:51:16;;;;;;;7.60;2.77;;;;;;;8.07;65.02;99353.03;4936511;29;20183;-90
2024/01/27 08:53:48;;;;;;;7.43;3.53;;;;;;;8.17;64.79;99346.56;4919182;29;20193;-89
2024/01/27 08:56:20;;;;;;;9.57;3.47;;;;;;;8.13;65.20;99344.09;4919196;29;20355;-89
2024/01/27 08:58:47;;;;;;;6.77;2.90;;;;;;;8.11;65.76;99343.31;4919100;29;20181;-88
2024/01/27 09:01:14;;;;;;;5.93;2.63;;;;;;;8.29;65.77;99346.09;4918987;29;20219;-88
2024/01/27 09:03:40;;;;;;;11.80;3.87;;;;;;;8.33;66.50;99352.06;4919279;29;20551;-88
2024/01/27 09:06:09;;;;;;;10.40;3.40;;;;;;;8.37;66.40;99351.00;4936038;29;20181;-88
2024/01/27 09:08:35;;;;;;;9.27;2.40;;;;;;;8.48;66.74;99348.81;4935769;29;20181;-89
2024/01/27 09:11:04;;;;;;;6.83;2.77;;;;;;;8.73;66.43;99352.09;4935762;29;20193;-88
2024/01/27 09:13:29;;;;;;;9.93;4.23;;;;;;;8.85;67.03;99346.38;4935962;29;20199;-89
2024/01/27 09:15:58;;;;;;;14.27;5.70;;;;;;;8.98;66.22;99352.78;4950733;28;20616;-88
2024/01/27 09:18:23;;;;;;;15.20;4.60;;;;;;;9.07;66.14;99354.13;4935632;29;20180;-88
2024/01/27 09:20:50;;;;;;;7.90;3.30;;;;;;;9.31;65.63;99354.84;4935983;29;20564;-88
2024/01/27 09:23:15;;;;;;;8.33;3.20;;;;;;;9.44;65.20;99358.63;4940297;29;20195;-88
2024/01/27 09:25:41;;;;;;;7.07;3.00;;;;;;;9.52;64.50;99374.81;4939680;29;20178;-88
2024/01/27 09:28:06;;;;;;;7.03;3.00;;;;;;;9.67;64.08;99368.94;4939674;29;20188;-88
2024/01/27 09:30:32;;;;;;;3.60;1.80;;;;;;;9.43;64.40;99351.72;4939892;29;20178;-88
2024/01/27 09:32:57;;;;;;;2.50;1.47;;;;;;;9.50;64.68;99371.44;4922821;29;20193;-88
2024/01/27 09:35:23;;;;;;;3.53;1.80;;;;;;;9.60;64.95;99368.34;4939812;29;20189;-88
2024/01/27 09:37:48;;;;;;;5.13;2.47;;;;;;;9.44;64.89;99366.47;4922418;29;20177;-89
2024/01/27 09:40:14;;;;;;;3.90;1.93;;;;;;;9.59;65.11;99373.66;4954098;28;20237;-88
2024/01/27 09:42:45;;;;;;;2.93;1.80;;;;;;;9.67;64.39;99368.94;4939116;29;20264;-88
2024/01/27 09:45:12;;;;;;;6.83;2.10;;;;;;;9.76;63.95;99361.50;4938891;29;20270;-88
2024/01/27 09:47:39;;;;;;;7.10;2.00;;;;;;;9.67;63.35;99356.66;4939346;29;20182;-88
2024/01/27 09:50:07;;;;;;;8.67;3.60;;;;;;;9.66;63.64;99357.59;4939033;29;20228;-88
2024/01/27 09:52:32;;;;;;;9.70;3.43;;;;;;;9.64;63.98;99348.13;4922177;29;20221;-88
2024/01/27 09:54:58;;;;;;;6.17;2.33;;;;;;;9.79;64.06;99344.81;4922172;29;20265;-88
2024/01/27 09:57:24;;;;;;;10.90;2.97;;;;;;;9.82;63.48;99342.06;4922381;29;20252;-88
2024/01/27 09:59:50;;;;;;;8.77;2.77;;;;;;;9.84;63.56;99345.44;4938778;29;20206;-88
2024/01/27 10:02:17;;;;;;;7.33;3.30;;;;;;;9.92;63.45;99345.94;4938831;29;20184;-88
2024/01/27 10:04:45;;;;;;;9.20;3.33;;;;;;;9.99;63.62;99343.88;4938774;29;20182;-88
2024/01/27 10:07:10;;;;;;;7.60;3.43;;;;;;;9.98;63.27;99350.03;4938997;29;20180;-88
2024/01/27 10:09:36;;;;;;;9.60;5.00;;;;;;;9.96;63.11;99339.63;4938919;29;20189;-88
2024/01/27 10:12:02;;;;;;;6.07;2.50;;;;;;;9.99;62.72;99344.72;4938898;29;20177;-88
2024/01/27 10:14:39;;;;;;;6.90;2.70;;;;;;;10.09;62.87;99335.50;4921794;29;20570;-88
2024/01/27 10:17:04;;;;;;;16.27;7.37;;;;;;;10.21;62.56;99329.72;4938562;29;20180;-88
2024/01/27 10:19:30;;;;;;;10.50;3.83;;;;;;;10.16;62.47;99326.50;4922743;29;20552;-88
2024/01/27 10:22:02;;;;;;;8.20;3.73;;;;;;;10.15;63.05;99316.91;4921725;29;20624;-88
2024/01/27 10:24:28;;;;;;;8.77;3.77;;;;;;;10.21;63.22;99315.78;4921626;29;20190;-88
2024/01/27 10:27:03;;;;;;;12.07;5.20;;;;;;;10.22;62.79;99315.69;4938677;29;20192;-88
2024/01/27 10:29:32;;;;;;;14.83;4.80;;;;;;;10.38;62.75;99305.31;4938621;29;20173;-88
2024/01/27 10:32:09;;;;;;;11.43;4.30;;;;;;;10.52;62.02;99302.03;4921401;29;20189;-88
2024/01/27 10:34:34;;;;;;;7.03;2.70;;;;;;;10.59;62.36;99295.53;4938262;29;20723;-88
2024/01/27 10:37:00;;;;;;;6.83;3.00;;;;;;;10.68;61.96;99289.84;4938224;29;20237;-89
2024/01/27 10:39:25;;;;;;;7.40;3.03;;;;;;;10.74;62.53;99281.69;4938366;29;20268;-88
2024/01/27 10:41:51;;;;;;;5.43;1.60;;;;;;;10.73;61.73;99282.59;4921591;29;20517;-88
2024/01/27 10:44:18;;;;;;;4.03;2.00;;;;;;;10.76;59.99;99278.06;4938397;29;20272;-88
2024/01/27 10:46:46;;;;;;;3.17;1.57;;;;;;;10.89;60.00;99275.66;4921955;29;20609;-88
2024/01/27 10:49:18;;;;;;;3.73;1.57;;;;;;;10.94;60.02;99263.13;4921265;29;20185;-88
2024/01/27 10:51:55;;;;;;;3.63;1.80;;;;;;;11.10;59.42;99266.66;4921202;29;20192;-89
2024/01/27 10:54:26;;;;;;;6.90;1.70;;;;;;;11.06;57.78;99267.75;4938505;29;20164;-88
2024/01/27 10:56:53;;;;;;;3.23;1.83;;;;;;;11.08;57.02;99261.47;4921124;29;20699;-88
2024/01/27 10:59:21;;;;;;;4.30;1.27;;;;;;;11.21;56.84;99272.19;4937796;29;20273;-89
2024/01/27 11:01:50;;;;;;;5.30;1.43;;;;;;;11.32;56.58;99264.59;4938266;29;20236;-87
2024/01/27 11:04:16;;;;;;;2.30;1.43;;;;;;;11.36;55.14;99260.03;4921146;29;20193;-88
2024/01/27 11:06:43;;;;;;;5.27;1.40;;;;;;;11.51;54.03;99257.41;4937655;29;20188;-88
2024/01/27 11:09:08;;;;;;;5.20;2.40;;;;;;;11.85;54.61;99258.22;4937607;29;20181;-90
2024/01/27 11:11:35;;;;;;;28.67;11.17;;;;;;;12.10;53.66;99269.06;4937605;29;20175;-89
2024/01/27 11:14:01;;;;;;;4.90;2.37;;;;;;;11.99;52.54;99258.31;4937609;29;20205;-89
2024/01/27 11:16:28;;;;;;;4.63;2.00;;;;;;;12.12;53.45;99268.03;4937507;29;20186;-88
2024/01/27 11:18:53;;;;;;;3.30;1.63;;;;;;;12.10;52.52;99248.88;4937479;29;20210;-89
2024/01/27 11:21:20;;;;;;;2.03;1.20;;;;;;;12.19;51.73;99255.38;4937635;29;20207;-89
2024/01/27 11:23:47;;;;;;;3.87;1.27;;;;;;;12.08;50.10;99249.91;4920698;29;20179;-88
2024/01/27 11:26:25;;;;;;;1.57;0.87;;;;;;;11.92;48.05;99256.97;4937622;29;20195;-89
2024/01/27 11:28:54;;;;;;;2.23;1.00;;;;;;;11.72;48.54;99258.06;4920638;29;20626;-91
2024/01/27 11:31:20;;;;;;;2.37;0.80;;;;;;;11.62;47.30;99256.84;4937304;29;20178;-87
2024/01/27 11:33:48;;;;;;;2.67;1.23;;;;;;;11.64;47.52;99271.56;4920482;29;20197;-90